Coban Airport


Codes: MGCB/CBV
Name: Coban Airport
City: Coban
Country: Guatemala
Elevation: 4339 ft.

Photos at Coban Airport


   Photos courtesy of SpottingLog. You can add your own sightings and photos by signing up for a free trial today.



No photos found.

Weather at Coban Airport


Time (UTC)DescriptionTempratureWindCloud coverageVisibilityPressureHumidity
18-Apr-2024 00:00Broken Clouds26°C2 mph, N81%10000m1010hPa51%
18-Apr-2024 03:00Overcast Clouds21°C2 mph, SE86%10000m1013hPa69%
18-Apr-2024 06:00Scattered Clouds17°C2 mph, S42%10000m1015hPa87%
18-Apr-2024 09:00Few Clouds15°C0 mph, SE19%10000m1014hPa96%
18-Apr-2024 12:00Scattered Clouds14°C2 mph, SE37%10000m1016hPa96%
18-Apr-2024 15:00Clear Sky24°C2 mph, N0%10000m1015hPa51%
18-Apr-2024 18:00Clear Sky28°C7 mph, N0%10000m1012hPa34%
18-Apr-2024 21:00Clear Sky28°C7 mph, N3%10000m1010hPa32%
19-Apr-2024 00:00Clear Sky21°C2 mph, N3%10000m1012hPa53%
19-Apr-2024 03:00Clear Sky18°C4 mph, SE0%10000m1015hPa74%
19-Apr-2024 06:00Clear Sky17°C2 mph, SE0%10000m1015hPa72%
19-Apr-2024 09:00Clear Sky15°C2 mph, S0%10000m1014hPa76%
19-Apr-2024 12:00Clear Sky15°C2 mph, S0%10000m1015hPa79%
19-Apr-2024 15:00Few Clouds24°C2 mph, N19%10000m1015hPa45%
19-Apr-2024 18:00Few Clouds28°C7 mph, N21%10000m1013hPa37%
19-Apr-2024 21:00Few Clouds28°C7 mph, N11%10000m1010hPa37%
20-Apr-2024 00:00Few Clouds22°C2 mph, NE22%10000m1012hPa57%
20-Apr-2024 03:00Scattered Clouds19°C4 mph, SE37%10000m1015hPa69%
20-Apr-2024 06:00Scattered Clouds18°C2 mph, S36%10000m1014hPa70%
20-Apr-2024 09:00Clear Sky15°C0 mph, SE0%10000m1015hPa85%
20-Apr-2024 12:00Clear Sky16°C2 mph, SE0%10000m1016hPa84%
20-Apr-2024 15:00Clear Sky25°C2 mph, N1%10000m1015hPa49%
20-Apr-2024 18:00Few Clouds28°C7 mph, N13%10000m1012hPa39%
20-Apr-2024 21:00Light Rain25°C2 mph, NE44%10000m1010hPa51%
21-Apr-2024 00:00Light Rain21°C4 mph, SE52%10000m1012hPa67%
21-Apr-2024 03:00Light Rain19°C4 mph, SE68%10000m1014hPa76%
21-Apr-2024 06:00Broken Clouds17°C2 mph, S55%10000m1014hPa80%
21-Apr-2024 09:00Few Clouds17°C2 mph, SE21%10000m1013hPa84%
21-Apr-2024 12:00Scattered Clouds16°C2 mph, S25%10000m1014hPa85%
21-Apr-2024 15:00Few Clouds25°C2 mph, S11%10000m1014hPa51%
21-Apr-2024 18:00Broken Clouds28°C4 mph, N51%10000m1011hPa41%
21-Apr-2024 21:00Scattered Clouds29°C4 mph, NE46%10000m1008hPa39%
22-Apr-2024 00:00Light Rain21°C2 mph, E55%10000m1011hPa64%
22-Apr-2024 03:00Light Rain18°C4 mph, SW100%10000m1014hPa89%
22-Apr-2024 06:00Overcast Clouds17°C4 mph, S100%10000m1014hPa88%
22-Apr-2024 09:00Overcast Clouds16°C2 mph, S99%10000m1013hPa87%
22-Apr-2024 12:00Broken Clouds15°C0 mph, S80%10000m1015hPa90%
22-Apr-2024 15:00Few Clouds24°C4 mph, N14%10000m1014hPa55%
22-Apr-2024 18:00Clear Sky28°C7 mph, N10%10000m1012hPa39%
22-Apr-2024 21:00Broken Clouds24°C4 mph, N80%10000m1011hPa51%